Time;durP1;ratioP1;P1;durP2;ratioP2;P2;SDS_P1;SDS_P2;PMS_P1;PMS_P2;Temp;Humidity;BMP_temperature;BMP_pressure;BME280_temperature;BME280_humidity;BME280_pressure;Samples;Min_cycle;Max_cycle;Signal;HPM_P1;HPM_P2
2021/08/17 00:00:01;;;;;;;8.88;5.33;;;;;;;22.65;76.72;100688.38;1691414;83;21053;-60
2021/08/17 00:02:30;;;;;;;8.38;5.60;;;;;;;22.67;76.34;100682.80;1714117;83;21056;-61
2021/08/17 00:04:57;;;;;;;7.08;5.22;;;;;;;22.64;76.44;100681.67;1703807;83;21060;-61
2021/08/17 00:07:26;;;;;;;8.50;4.80;;;;;;;22.63;76.45;100688.14;1695185;82;20988;-60
2021/08/17 00:09:54;;;;;;;13.22;5.45;;;;;;;22.58;76.17;100686.67;1706110;83;21095;-61
2021/08/17 00:12:22;;;;;;;11.18;5.30;;;;;;;22.52;76.40;100680.87;1713018;81;21510;-60
2021/08/17 00:14:51;;;;;;;9.13;5.80;;;;;;;22.46;76.41;100684.52;1712134;82;21043;-60
2021/08/17 00:17:17;;;;;;;13.40;5.22;;;;;;;22.46;76.58;100685.88;1740675;81;21064;-61
2021/08/17 00:19:46;;;;;;;7.85;5.15;;;;;;;22.47;76.50;100681.30;1731789;81;21107;-60
2021/08/17 00:22:14;;;;;;;11.30;5.28;;;;;;;22.48;76.37;100687.13;1731398;81;21155;-61
2021/08/17 00:24:41;;;;;;;10.18;5.33;;;;;;;22.48;76.17;100683.03;1693525;83;21513;-61
2021/08/17 00:27:07;;;;;;;16.05;5.72;;;;;;;22.49;75.96;100683.39;1721625;81;21033;-61
2021/08/17 00:32:18;;;;;;;7.33;4.67;;;;;;;22.48;75.17;100678.05;1710555;82;21114;-62
2021/08/17 00:34:46;;;;;;;7.92;4.80;;;;;;;22.40;75.34;100675.95;1716063;83;22025;-62
2021/08/17 00:37:17;;;;;;;9.15;4.80;;;;;;;22.38;75.36;100674.73;1727746;82;21052;-61
2021/08/17 00:40:16;;;;;;;7.80;4.67;;;;;;;22.37;75.14;100670.76;1730187;81;20963;-60
2021/08/17 00:42:53;;;;;;;7.70;4.60;;;;;;;22.40;75.25;100673.22;1730139;81;21056;-61
2021/08/17 00:45:23;;;;;;;10.82;5.42;;;;;;;22.49;74.75;100668.86;1697494;82;21099;-60
2021/08/17 00:47:51;;;;;;;8.33;5.28;;;;;;;22.49;74.29;100671.59;1705068;83;21035;-61
2021/08/17 00:50:21;;;;;;;7.12;4.90;;;;;;;22.46;74.32;100673.59;1716238;83;21097;-61
2021/08/17 00:52:48;;;;;;;10.32;5.17;;;;;;;22.44;74.15;100675.56;1730527;81;20976;-61
2021/08/17 00:55:15;;;;;;;9.20;4.60;;;;;;;22.41;74.28;100665.39;1726094;81;21037;-61
2021/08/17 00:57:42;;;;;;;10.08;5.20;;;;;;;22.44;74.20;100667.88;1736972;81;21433;-60
2021/08/17 01:00:12;;;;;;;6.95;4.53;;;;;;;22.44;73.99;100666.52;1726069;81;21120;-59
2021/08/17 01:02:41;;;;;;;7.72;4.45;;;;;;;22.41;74.09;100666.27;1741082;81;21125;-61
2021/08/17 01:05:09;;;;;;;9.63;4.90;;;;;;;22.42;74.02;100667.13;1739759;81;20978;-60
2021/08/17 01:07:37;;;;;;;7.70;4.90;;;;;;;22.40;73.90;100660.92;1735427;81;21075;-61
2021/08/17 01:10:06;;;;;;;8.85;5.00;;;;;;;22.39;74.08;100667.39;1738354;81;21026;-61
2021/08/17 01:12:34;;;;;;;10.08;5.22;;;;;;;22.42;74.30;100670.73;1727607;81;21592;-61
2021/08/17 01:15:02;;;;;;;8.23;5.08;;;;;;;22.46;74.16;100668.61;1692696;83;21108;-61
2021/08/17 01:17:31;;;;;;;7.17;4.92;;;;;;;22.49;74.19;100664.27;1724649;81;21653;-61
2021/08/17 01:19:58;;;;;;;7.70;4.87;;;;;;;22.52;73.98;100665.37;1710300;83;21819;-62
2021/08/17 01:22:25;;;;;;;9.73;5.65;;;;;;;22.49;73.85;100667.01;1710462;83;21052;-59
2021/08/17 01:24:52;;;;;;;8.20;5.60;;;;;;;22.42;74.07;100659.81;1704838;83;21154;-61
2021/08/17 01:27:19;;;;;;;8.05;4.40;;;;;;;22.35;74.33;100659.10;1707315;82;21037;-62
2021/08/17 01:29:46;;;;;;;9.15;4.80;;;;;;;22.30;74.52;100660.37;1729352;82;21101;-60
2021/08/17 01:32:15;;;;;;;12.98;5.42;;;;;;;22.30;74.57;100661.73;1687819;84;21593;-60
2021/08/17 01:34:42;;;;;;;6.33;4.50;;;;;;;22.29;74.55;100656.39;1689855;84;21033;-60
2021/08/17 01:37:12;;;;;;;7.85;4.50;;;;;;;22.29;74.60;100658.64;1695707;84;21450;-61
2021/08/17 01:39:40;;;;;;;7.55;4.62;;;;;;;22.31;74.68;100652.55;1680252;84;21114;-61
2021/08/17 01:42:07;;;;;;;6.87;4.55;;;;;;;22.38;74.51;100657.47;1684681;84;20960;-60
2021/08/17 01:44:34;;;;;;;7.60;4.78;;;;;;;22.39;74.28;100655.09;1735190;81;21076;-60
2021/08/17 01:47:01;;;;;;;8.73;5.00;;;;;;;22.40;74.21;100656.83;1716383;82;21591;-61
2021/08/17 01:49:28;;;;;;;8.73;4.80;;;;;;;22.41;74.26;100655.83;1710718;83;21138;-61
2021/08/17 01:51:56;;;;;;;7.72;5.05;;;;;;;22.39;74.24;100657.83;1739362;82;21041;-60
2021/08/17 01:54:23;;;;;;;9.95;5.28;;;;;;;22.39;74.16;100657.83;1713762;83;21558;-60
2021/08/17 01:56:52;;;;;;;9.60;4.83;;;;;;;22.32;73.92;100652.03;1716508;82;21100;-62
2021/08/17 01:59:19;;;;;;;6.17;4.72;;;;;;;22.22;74.28;100649.26;1701994;82;21090;-61
2021/08/17 02:01:46;;;;;;;9.63;4.22;;;;;;;22.17;74.57;100648.28;1714794;81;21177;-61
2021/08/17 02:04:13;;;;;;;8.85;4.92;;;;;;;22.14;75.02;100643.58;1687831;84;21940;-60
2021/08/17 02:06:40;;;;;;;7.85;4.90;;;;;;;22.17;75.12;100641.94;1677841;83;21084;-60
2021/08/17 02:09:07;;;;;;;8.33;5.12;;;;;;;22.12;74.90;100640.99;1711149;81;21052;-60
2021/08/17 02:11:35;;;;;;;8.85;4.92;;;;;;;22.01;75.55;100639.66;1728759;81;21118;-61
2021/08/17 02:14:03;;;;;;;13.32;5.10;;;;;;;22.02;76.01;100638.19;1747034;81;21134;-61
2021/08/17 02:16:31;;;;;;;8.78;4.97;;;;;;;22.08;76.04;100634.55;1737561;81;21583;-60
2021/08/17 02:18:58;;;;;;;8.08;5.28;;;;;;;22.10;75.96;100632.55;1737295;81;21035;-60
2021/08/17 02:21:27;;;;;;;7.95;4.67;;;;;;;22.11;76.02;100634.28;1753254;81;20984;-61
2021/08/17 02:23:54;;;;;;;15.05;5.05;;;;;;;22.11;76.04;100632.44;1747604;81;21091;-61
2021/08/17 02:26:21;;;;;;;13.95;5.20;;;;;;;22.12;76.21;100623.73;1740056;81;21119;-60
2021/08/17 02:28:48;;;;;;;13.83;5.37;;;;;;;22.14;76.23;100627.19;1727741;81;21473;-60
2021/08/17 02:31:14;;;;;;;9.68;5.60;;;;;;;22.15;76.20;100634.38;1737835;81;21032;-62
2021/08/17 02:33:41;;;;;;;10.55;5.12;;;;;;;22.16;76.17;100627.92;1728640;81;21068;-60
2021/08/17 02:36:09;;;;;;;10.78;5.22;;;;;;;22.11;75.98;100635.66;1694316;84;20914;-61
2021/08/17 02:38:37;;;;;;;14.93;6.03;;;;;;;22.01;76.22;100631.48;1714911;82;21466;-60
2021/08/17 02:41:05;;;;;;;12.68;5.70;;;;;;;21.98;76.62;100629.87;1707761;83;21483;-61
2021/08/17 02:43:33;;;;;;;32.83;6.50;;;;;;;21.99;76.63;100631.59;1718632;81;21083;-61
2021/08/17 02:46:01;;;;;;;40.33;7.55;;;;;;;22.00;76.81;100634.72;1712043;83;21556;-61
2021/08/17 02:48:28;;;;;;;45.60;8.20;;;;;;;22.03;76.97;100630.36;1683415;84;21054;-61
2021/08/17 02:50:56;;;;;;;31.00;8.93;;;;;;;22.03;77.01;100633.09;1683332;84;21035;-61
2021/08/17 02:53:23;;;;;;;29.07;8.23;;;;;;;22.03;77.08;100630.84;1716772;82;21446;-60
2021/08/17 02:55:50;;;;;;;37.20;7.90;;;;;;;22.01;77.20;100627.38;1691627;84;21069;-61
2021/08/17 02:58:17;;;;;;;24.40;6.92;;;;;;;21.99;77.12;100632.11;1714935;83;21044;-60
2021/08/17 03:00:44;;;;;;;22.60;5.97;;;;;;;21.95;77.30;100631.50;1704251;82;21040;-60
2021/08/17 03:03:11;;;;;;;24.07;6.72;;;;;;;21.95;76.64;100641.05;1702297;83;21105;-61
2021/08/17 03:05:39;;;;;;;32.73;7.35;;;;;;;21.92;76.37;100637.22;1702547;82;21068;-60
2021/08/17 03:08:07;;;;;;;16.10;5.95;;;;;;;21.87;76.39;100632.14;1702641;83;21482;-60
2021/08/17 03:10:36;;;;;;;17.82;5.75;;;;;;;21.83;76.29;100640.75;1724520;82;21120;-60
2021/08/17 03:13:04;;;;;;;14.85;5.25;;;;;;;21.72;76.41;100646.59;1726467;83;21052;-61
2021/08/17 03:15:34;;;;;;;19.95;5.75;;;;;;;21.63;76.37;100647.34;1711851;82;21752;-61
2021/08/17 03:18:05;;;;;;;44.77;8.75;;;;;;;21.60;76.58;100650.34;1721580;83;20944;-61
2021/08/17 03:20:33;;;;;;;39.38;8.30;;;;;;;21.65;77.92;100650.84;1684098;84;21045;-60
2021/08/17 03:23:02;;;;;;;30.30;7.62;;;;;;;21.70;78.59;100654.05;1711583;81;21076;-60
2021/08/17 03:25:29;;;;;;;27.37;7.03;;;;;;;21.78;78.76;100652.55;1729811;81;21787;-61
2021/08/17 03:27:56;;;;;;;23.85;7.95;;;;;;;21.87;78.52;100651.77;1726166;82;21203;-61
2021/08/17 03:30:25;;;;;;;29.50;7.50;;;;;;;21.99;78.33;100653.43;1711735;82;21091;-60
2021/08/17 03:32:52;;;;;;;49.60;8.68;;;;;;;22.11;77.99;100651.55;1699269;84;21604;-60
2021/08/17 03:35:19;;;;;;;124.40;11.83;;;;;;;22.24;77.48;100654.57;1719470;82;21047;-60
2021/08/17 03:37:47;;;;;;;91.53;10.48;;;;;;;22.32;77.39;100654.76;1714146;83;21123;-60
2021/08/17 03:40:18;;;;;;;114.62;12.82;;;;;;;22.39;77.59;100659.20;1674305;84;21241;-60
2021/08/17 03:42:45;;;;;;;153.87;14.33;;;;;;;22.47;77.38;100666.28;1696783;83;21068;-61
2021/08/17 03:45:14;;;;;;;116.17;14.20;;;;;;;22.54;78.07;100664.73;1742113;81;21036;-61
2021/08/17 03:47:42;;;;;;;122.50;12.63;;;;;;;22.60;78.78;100655.98;1725624;83;21091;-61
2021/08/17 03:50:12;;;;;;;100.62;11.22;;;;;;;22.66;78.99;100655.08;1696967;83;21411;-62
2021/08/17 03:52:39;;;;;;;65.65;11.78;;;;;;;22.74;79.50;100664.33;1697051;83;21518;-61
2021/08/17 03:55:07;;;;;;;53.90;10.05;;;;;;;22.82;80.01;100652.72;1692096;83;21045;-62
2021/08/17 03:57:35;;;;;;;60.12;10.43;;;;;;;22.89;80.02;100655.30;1696428;83;21573;-61
2021/08/17 04:00:06;;;;;;;47.50;9.85;;;;;;;23.00;79.50;100656.19;1687738;83;21061;-61
2021/08/17 04:02:35;;;;;;;40.63;10.13;;;;;;;23.09;78.82;100655.35;1688218;84;20976;-61
2021/08/17 04:05:03;;;;;;;54.45;9.93;;;;;;;23.20;78.64;100653.54;1696186;83;21718;-61
2021/08/17 04:07:31;;;;;;;44.23;9.70;;;;;;;23.30;78.09;100657.19;1694618;83;21009;-62
2021/08/17 04:09:59;;;;;;;31.90;8.23;;;;;;;23.41;77.61;100658.45;1697190;83;21119;-61
2021/08/17 04:12:26;;;;;;;36.70;9.10;;;;;;;23.55;76.87;100661.81;1696918;84;21045;-62
2021/08/17 04:14:55;;;;;;;29.72;7.92;;;;;;;23.69;76.11;100664.12;1702473;83;21091;-62
2021/08/17 04:20:10;;;;;;;32.00;7.70;;;;;;;23.97;74.80;100668.39;1700688;83;21103;-61
2021/08/17 04:22:39;;;;;;;30.32;7.53;;;;;;;24.12;74.29;100668.00;1703929;82;21438;-62
2021/08/17 04:25:12;;;;;;;27.98;6.97;;;;;;;24.23;73.80;100667.86;1702839;82;21040;-61
2021/08/17 04:27:37;;;;;;;20.90;6.62;;;;;;;24.35;73.54;100666.32;1697843;83;21191;-61
2021/08/17 04:30:06;;;;;;;25.65;6.95;;;;;;;24.49;73.08;100669.98;1713573;82;21020;-62
2021/08/17 04:32:33;;;;;;;23.57;6.75;;;;;;;24.61;72.55;100671.53;1702729;82;21460;-61
2021/08/17 04:35:01;;;;;;;19.57;6.58;;;;;;;24.77;71.76;100664.61;1700464;82;21083;-61
2021/08/17 04:37:28;;;;;;;24.18;6.12;;;;;;;24.91;71.11;100670.11;1713806;82;21035;-61
2021/08/17 04:39:55;;;;;;;27.42;6.87;;;;;;;25.03;69.77;100671.67;1739790;81;21102;-61
2021/08/17 04:42:22;;;;;;;17.70;6.80;;;;;;;25.16;69.19;100675.44;1734865;81;21131;-63
2021/08/17 04:44:51;;;;;;;21.65;6.50;;;;;;;25.29;68.94;100678.31;1740583;81;20937;-61
2021/08/17 04:47:20;;;;;;;11.85;5.70;;;;;;;25.42;68.65;100673.84;1739793;81;21008;-61
2021/08/17 04:49:48;;;;;;;11.85;5.37;;;;;;;25.55;68.11;100676.28;1708092;82;21057;-61
2021/08/17 04:52:17;;;;;;;7.45;4.97;;;;;;;25.64;67.58;100676.72;1715750;81;21570;-61
2021/08/17 04:54:44;;;;;;;10.28;5.12;;;;;;;25.76;67.06;100680.63;1715044;82;21153;-61
2021/08/17 04:57:13;;;;;;;15.93;5.42;;;;;;;25.86;66.50;100680.03;1703515;82;21006;-62
2021/08/17 04:59:40;;;;;;;8.33;4.80;;;;;;;25.96;66.19;100684.08;1697763;83;21073;-61
2021/08/17 05:02:07;;;;;;;8.45;5.35;;;;;;;26.07;65.62;100689.84;1699025;83;21077;-61
2021/08/17 05:04:35;;;;;;;9.50;5.15;;;;;;;26.17;65.03;100689.27;1723395;82;21067;-62
2021/08/17 05:07:01;;;;;;;9.58;4.75;;;;;;;26.30;64.77;100689.75;1738987;81;21080;-62
2021/08/17 05:09:28;;;;;;;7.33;5.30;;;;;;;26.45;64.56;100689.19;1731285;81;21044;-61
2021/08/17 05:11:55;;;;;;;7.72;4.72;;;;;;;26.56;64.54;100694.41;1723719;81;21083;-62
2021/08/17 05:14:23;;;;;;;8.85;4.95;;;;;;;26.71;63.30;100692.47;1736322;81;21154;-62
2021/08/17 05:16:52;;;;;;;7.58;4.72;;;;;;;26.85;62.52;100691.88;1733169;81;21077;-62
2021/08/17 05:19:21;;;;;;;9.03;4.40;;;;;;;27.01;61.93;100697.14;1739386;81;21509;-62
2021/08/17 05:21:47;;;;;;;8.85;4.35;;;;;;;27.13;61.39;100696.34;1739303;81;21150;-62
2021/08/17 05:24:16;;;;;;;7.10;4.40;;;;;;;27.24;60.73;100693.81;1738388;81;21127;-62
2021/08/17 05:26:44;;;;;;;10.60;4.65;;;;;;;27.36;59.87;100698.51;1738520;81;22146;-62
2021/08/17 05:29:11;;;;;;;11.75;5.00;;;;;;;27.45;59.11;100703.88;1732623;81;21060;-62
2021/08/17 05:34:18;;;;;;;10.28;4.62;;;;;;;27.65;57.72;100707.77;1735153;81;21111;-63
2021/08/17 05:36:47;;;;;;;14.10;4.15;;;;;;;27.72;56.60;100706.06;1720197;81;21083;-62
2021/08/17 05:39:14;;;;;;;11.95;4.12;;;;;;;27.81;55.38;100703.34;1696702;83;21073;-62
2021/08/17 05:41:42;;;;;;;17.32;4.47;;;;;;;27.88;55.32;100703.01;1705377;83;21146;-62
2021/08/17 05:44:11;;;;;;;13.00;4.37;;;;;;;28.01;54.77;100707.52;1705834;83;21547;-62
2021/08/17 05:46:37;;;;;;;8.68;4.42;;;;;;;28.16;54.73;100702.73;1706362;81;21143;-61
2021/08/17 05:49:05;;;;;;;16.73;4.90;;;;;;;28.30;54.69;100699.30;1733329;81;21150;-62
2021/08/17 05:51:32;;;;;;;12.18;4.67;;;;;;;28.42;53.99;100700.35;1708905;82;21156;-62
2021/08/17 05:53:59;;;;;;;9.05;4.37;;;;;;;28.53;53.22;100704.13;1715221;82;21147;-62
2021/08/17 05:56:26;;;;;;;9.15;4.40;;;;;;;28.65;53.26;100701.02;1718006;82;22412;-62
2021/08/17 05:58:53;;;;;;;12.37;4.37;;;;;;;28.78;53.30;100695.81;1712243;82;21092;-62
2021/08/17 06:01:20;;;;;;;7.40;4.33;;;;;;;28.92;53.01;100700.31;1710199;82;21055;-61
2021/08/17 06:03:47;;;;;;;10.98;4.50;;;;;;;29.02;52.33;100707.35;1710072;82;21107;-62
2021/08/17 06:06:15;;;;;;;21.70;4.97;;;;;;;29.14;51.89;100705.07;1713236;82;21541;-61
2021/08/17 06:08:42;;;;;;;8.73;4.25;;;;;;;29.24;51.45;100695.71;1711539;82;21108;-62
2021/08/17 06:11:11;;;;;;;12.00;4.80;;;;;;;29.34;51.27;100704.66;1708520;82;20948;-61
2021/08/17 06:13:39;;;;;;;11.57;4.50;;;;;;;29.40;51.18;100709.45;1703533;82;21107;-62
2021/08/17 06:16:08;;;;;;;7.72;4.35;;;;;;;29.49;50.84;100706.67;1712555;81;21111;-62
2021/08/17 06:18:35;;;;;;;8.83;4.45;;;;;;;29.55;50.28;100710.12;1728035;81;21099;-62
2021/08/17 06:21:04;;;;;;;11.68;4.08;;;;;;;29.62;49.75;100711.11;1731520;81;21035;-62
2021/08/17 06:23:32;;;;;;;12.85;4.12;;;;;;;29.68;49.72;100709.00;1732521;81;21105;-61
2021/08/17 06:25:59;;;;;;;11.25;4.35;;;;;;;29.76;49.33;100710.02;1729730;81;21063;-62
2021/08/17 06:28:28;;;;;;;11.38;3.85;;;;;;;29.83;48.74;100713.76;1725038;81;37730;-63
2021/08/17 06:30:54;;;;;;;7.33;4.45;;;;;;;29.91;48.26;100709.55;1728546;81;21060;-63
2021/08/17 06:33:21;;;;;;;11.95;4.20;;;;;;;30.00;48.09;100709.85;1732830;81;21134;-63
2021/08/17 06:35:48;;;;;;;11.20;4.53;;;;;;;30.11;47.41;100718.78;1734201;81;21030;-62
2021/08/17 06:38:16;;;;;;;14.33;4.17;;;;;;;30.22;46.28;100720.26;1732815;81;21032;-64
2021/08/17 06:40:42;;;;;;;12.45;4.17;;;;;;;30.28;45.43;100731.45;1730626;81;21456;-64
2021/08/17 06:43:10;;;;;;;10.78;4.17;;;;;;;30.37;46.34;100728.60;1735158;81;21103;-65
2021/08/17 06:45:38;;;;;;;7.97;3.90;;;;;;;30.44;47.16;100732.37;1734131;81;21517;-62
2021/08/17 06:48:05;;;;;;;9.48;4.10;;;;;;;30.46;47.09;100733.04;1726260;81;21110;-63
2021/08/17 06:50:32;;;;;;;6.30;4.20;;;;;;;30.53;47.72;100735.93;1725871;81;21131;-63
2021/08/17 06:52:59;;;;;;;11.70;4.62;;;;;;;30.56;48.47;100733.62;1738666;81;21004;-61
2021/08/17 06:55:26;;;;;;;6.50;4.40;;;;;;;30.56;49.03;100732.78;1734447;81;21118;-62
2021/08/17 06:57:54;;;;;;;9.08;4.20;;;;;;;30.53;49.26;100733.16;1731074;81;21020;-62
2021/08/17 07:00:22;;;;;;;7.53;4.10;;;;;;;30.51;49.71;100731.95;1728598;81;21056;-61
2021/08/17 07:02:49;;;;;;;8.93;4.10;;;;;;;30.51;49.67;100736.09;1724176;81;21064;-62
2021/08/17 07:05:16;;;;;;;6.05;4.53;;;;;;;30.48;49.86;100730.95;1727439;81;21401;-61
2021/08/17 07:07:45;;;;;;;5.60;3.92;;;;;;;30.44;49.68;100733.75;1726883;81;21037;-62
2021/08/17 07:10:13;;;;;;;8.48;4.10;;;;;;;30.40;49.81;100736.56;1725140;81;21142;-61
2021/08/17 07:12:41;;;;;;;7.12;4.03;;;;;;;30.38;49.49;100733.09;1705556;81;21517;-62
2021/08/17 07:15:11;;;;;;;5.72;3.70;;;;;;;30.34;49.34;100728.98;1713418;82;21270;-61
2021/08/17 07:17:38;;;;;;;13.32;4.33;;;;;;;30.37;49.37;100734.13;1708104;82;21206;-62
2021/08/17 07:20:06;;;;;;;6.15;3.92;;;;;;;30.43;49.55;100733.42;1703926;83;21076;-62
2021/08/17 07:22:35;;;;;;;7.35;4.12;;;;;;;30.44;49.83;100735.13;1714426;81;20981;-61
2021/08/17 07:25:04;;;;;;;5.85;4.37;;;;;;;30.45;50.25;100731.32;1696774;83;21112;-63
2021/08/17 07:27:31;;;;;;;8.75;4.22;;;;;;;30.50;50.22;100731.61;1688083;83;21470;-65
2021/08/17 07:29:58;;;;;;;9.05;4.25;;;;;;;30.53;49.65;100735.39;1702156;81;21528;-65
2021/08/17 07:32:25;;;;;;;8.03;4.10;;;;;;;30.50;49.33;100733.00;1698555;83;21355;-65
2021/08/17 07:34:52;;;;;;;5.42;4.05;;;;;;;30.50;49.41;100739.03;1695485;83;21641;-62
2021/08/17 07:37:19;;;;;;;12.05;3.83;;;;;;;30.51;49.13;100738.86;1696575;82;21087;-65
2021/08/17 07:39:46;;;;;;;7.25;3.87;;;;;;;30.54;49.69;100730.19;1698999;82;20998;-65
2021/08/17 07:42:13;;;;;;;19.77;7.85;;;;;;;30.56;49.13;100732.24;1710102;82;21053;-63
2021/08/17 07:44:40;;;;;;;9.88;3.60;;;;;;;30.56;48.91;100736.39;1708666;82;21063;-62
2021/08/17 07:47:07;;;;;;;6.87;3.90;;;;;;;30.56;48.66;100736.39;1701549;82;21889;-62
2021/08/17 07:49:34;;;;;;;11.28;7.67;;;;;;;30.50;48.53;100738.53;1729714;81;21153;-63
2021/08/17 07:52:04;;;;;;;5.25;3.60;;;;;;;30.50;48.68;100726.59;1709949;82;21172;-61
2021/08/17 07:54:31;;;;;;;13.80;3.60;;;;;;;30.49;48.96;100733.17;1706565;82;21598;-63
2021/08/17 07:56:58;;;;;;;11.20;3.52;;;;;;;30.48;49.55;100728.18;1706749;82;21012;-63
2021/08/17 07:59:25;;;;;;;5.20;4.15;;;;;;;30.50;50.03;100721.94;1706741;82;21013;-64
2021/08/17 08:01:52;;;;;;;4.42;3.62;;;;;;;30.52;49.89;100725.37;1703754;82;21076;-62
2021/08/17 08:04:20;;;;;;;5.55;3.40;;;;;;;30.51;50.35;100725.03;1710984;82;21119;-64
2021/08/17 08:06:50;;;;;;;12.82;3.90;;;;;;;30.50;50.44;100727.97;1712682;82;21017;-62
2021/08/17 08:09:18;;;;;;;5.35;3.20;;;;;;;30.45;50.78;100717.49;1711223;82;21119;-62
2021/08/17 08:11:45;;;;;;;7.80;3.67;;;;;;;30.45;50.70;100716.95;1702872;82;21723;-62
2021/08/17 08:14:13;;;;;;;4.35;3.50;;;;;;;30.48;51.03;100711.58;1700774;82;21097;-62
2021/08/17 08:16:41;;;;;;;6.53;3.35;;;;;;;30.52;50.76;100718.45;1709114;82;21142;-62
2021/08/17 08:19:10;;;;;;;7.25;3.80;;;;;;;30.55;51.06;100715.31;1710434;82;21074;-62
2021/08/17 08:21:37;;;;;;;8.98;4.15;;;;;;;30.58;50.93;100708.56;1708716;82;21075;-62
2021/08/17 08:24:05;;;;;;;9.33;3.67;;;;;;;30.59;51.34;100711.66;1698109;82;21493;-62
2021/08/17 08:26:32;;;;;;;4.28;3.55;;;;;;;30.62;51.78;100709.05;1717556;81;21573;-62
2021/08/17 08:28:59;;;;;;;7.42;3.50;;;;;;;30.66;52.12;100710.42;1700789;83;21486;-62
2021/08/17 08:31:27;;;;;;;8.15;3.50;;;;;;;30.69;52.38;100701.20;1711467;82;21510;-62
2021/08/17 08:33:54;;;;;;;9.33;3.47;;;;;;;30.70;52.31;100710.38;1707388;82;21122;-61
2021/08/17 08:36:21;;;;;;;5.75;3.67;;;;;;;30.68;52.59;100716.62;1709471;82;21864;-62
2021/08/17 08:38:48;;;;;;;6.62;3.77;;;;;;;30.57;53.11;100711.83;1710323;82;21064;-61
2021/08/17 08:41:17;;;;;;;5.28;3.15;;;;;;;30.48;53.61;100706.05;1712154;82;21151;-62
2021/08/17 08:43:44;;;;;;;7.75;3.70;;;;;;;30.43;53.93;100715.44;1659947;84;21085;-62
2021/08/17 08:46:20;;;;;;;12.58;3.35;;;;;;;30.33;54.17;100714.31;1705895;82;21097;-62
2021/08/17 08:48:50;;;;;;;6.97;4.08;;;;;;;30.24;54.58;100713.52;1706249;82;21102;-62
2021/08/17 08:51:18;;;;;;;9.80;3.67;;;;;;;30.15;54.63;100709.07;1710706;82;21404;-62
2021/08/17 08:53:45;;;;;;;8.85;3.72;;;;;;;30.10;54.91;100711.53;1694575;82;21120;-62
2021/08/17 08:56:12;;;;;;;5.55;4.10;;;;;;;30.06;54.86;100704.66;1703844;82;21087;-60
2021/08/17 08:58:43;;;;;;;6.75;3.85;;;;;;;30.06;55.30;100710.19;1705843;82;21099;-60
2021/08/17 09:01:11;;;;;;;6.37;3.35;;;;;;;30.08;55.50;100705.33;1705517;82;21135;-61
2021/08/17 09:03:45;;;;;;;5.33;3.40;;;;;;;30.12;54.72;100708.06;1709584;82;21088;-62
2021/08/17 09:06:21;;;;;;;5.35;3.52;;;;;;;30.07;54.82;100703.11;1706940;82;21032;-59
2021/08/17 09:08:52;;;;;;;8.10;3.50;;;;;;;30.01;55.62;100700.55;1706842;82;21529;-62
2021/08/17 09:11:33;;;;;;;6.25;3.33;;;;;;;29.95;56.75;100705.91;1681429;82;21116;-60
2021/08/17 09:14:30;;;;;;;9.15;3.75;;;;;;;29.89;56.94;100701.97;1704520;82;21136;-60
2021/08/17 09:17:06;;;;;;;5.28;3.70;;;;;;;29.77;57.27;100704.83;1706001;82;21056;-62
2021/08/17 09:19:41;;;;;;;8.63;4.33;;;;;;;29.64;58.06;100704.88;1710090;82;21502;-64
2021/08/17 09:22:22;;;;;;;5.90;3.70;;;;;;;29.55;58.10;100707.36;1706615;82;21433;-62
2021/08/17 09:24:51;;;;;;;5.28;3.70;;;;;;;29.47;58.41;100703.23;1703891;82;21111;-62
2021/08/17 09:27:29;;;;;;;10.18;3.77;;;;;;;29.39;59.25;100704.98;1721903;81;22331;-63
2021/08/17 09:30:07;;;;;;;5.83;4.05;;;;;;;29.36;58.69;100705.34;1713413;82;21411;-62
2021/08/17 09:32:34;;;;;;;8.65;3.98;;;;;;;29.37;59.23;100713.08;1705127;82;21560;-62
2021/08/17 09:35:03;;;;;;;9.75;3.85;;;;;;;29.40;59.65;100703.93;1690362;82;21152;-61
2021/08/17 09:37:34;;;;;;;7.62;3.70;;;;;;;29.48;59.01;100700.81;1711778;82;21126;-62
2021/08/17 09:40:03;;;;;;;14.68;3.75;;;;;;;29.49;58.10;100696.50;1696179;82;21792;-63
2021/08/17 09:42:33;;;;;;;6.53;3.92;;;;;;;29.48;58.47;100702.20;1701986;82;21435;-65
2021/08/17 09:45:15;;;;;;;5.97;3.83;;;;;;;29.44;58.46;100702.56;1711072;82;20960;-62
2021/08/17 09:47:45;;;;;;;30.68;24.27;;;;;;;29.42;58.85;100704.64;1702055;82;20925;-66
2021/08/17 09:50:29;;;;;;;10.20;8.38;;;;;;;29.42;59.34;100706.02;1704503;82;20909;-64
2021/08/17 09:53:20;;;;;;;7.17;4.00;;;;;;;29.47;59.76;100703.23;1711830;82;21764;-65
2021/08/17 09:55:53;;;;;;;8.33;3.80;;;;;;;29.56;59.50;100703.55;1707444;82;20948;-66
2021/08/17 09:58:38;;;;;;;6.10;3.95;;;;;;;29.59;58.07;100704.57;1709406;82;21288;-66
2021/08/17 10:01:08;;;;;;;4.83;3.80;;;;;;;29.61;58.25;100705.25;1714970;82;27990;-66
2021/08/17 10:03:35;;;;;;;4.80;4.00;;;;;;;29.63;58.54;100697.64;1706526;82;20917;-66
2021/08/17 10:06:02;;;;;;;7.08;3.90;;;;;;;29.62;57.54;100703.33;1714238;82;21115;-65
2021/08/17 10:08:32;;;;;;;4.62;3.60;;;;;;;29.58;57.58;100700.94;1710308;82;21091;-65
2021/08/17 10:11:01;;;;;;;8.55;3.92;;;;;;;29.53;58.25;100691.49;1704550;82;21638;-65
2021/08/17 10:13:31;;;;;;;8.23;3.85;;;;;;;29.45;58.27;100701.52;1708867;82;21103;-66
2021/08/17 10:15:59;;;;;;;5.72;3.72;;;;;;;29.37;58.46;100693.25;1714014;82;21017;-65
2021/08/17 10:18:31;;;;;;;8.15;3.80;;;;;;;29.33;57.89;100691.02;1710892;82;21095;-67
2021/08/17 10:21:01;;;;;;;6.30;4.03;;;;;;;29.33;58.89;100697.42;1688012;82;21528;-65
2021/08/17 10:23:30;;;;;;;10.32;4.05;;;;;;;29.33;58.06;100689.64;1695610;83;21015;-65
2021/08/17 10:26:02;;;;;;;6.17;4.12;;;;;;;29.32;58.85;100691.55;1677142;83;21542;-65
2021/08/17 10:28:40;;;;;;;6.67;3.67;;;;;;;29.33;58.73;100685.50;1707947;83;21063;-65
2021/08/17 10:31:19;;;;;;;5.72;4.03;;;;;;;29.24;57.98;100686.05;1699924;82;21368;-65
2021/08/17 10:33:53;;;;;;;11.60;4.08;;;;;;;29.18;58.84;100687.65;1703717;82;21384;-65
2021/08/17 10:39:26;;;;;;;5.83;4.37;;;;;;;29.12;59.24;100682.31;1706404;83;21047;-65
2021/08/17 10:41:54;;;;;;;4.75;3.52;;;;;;;29.06;59.04;100683.00;1703537;83;21099;-64
2021/08/17 10:44:30;;;;;;;10.45;3.55;;;;;;;28.94;57.19;100683.90;1722646;81;21143;-64
2021/08/17 10:47:02;;;;;;;6.67;3.52;;;;;;;28.87;57.58;100682.39;1712109;82;22313;-65
2021/08/17 10:49:48;;;;;;;5.28;3.35;;;;;;;28.79;56.31;100679.62;1718912;81;21057;-65
2021/08/17 10:52:34;;;;;;;11.28;3.80;;;;;;;28.73;56.60;100678.94;1715442;81;21036;-65
2021/08/17 10:55:56;;;;;;;5.30;3.30;;;;;;;28.68;56.86;100670.33;1717972;81;21000;-65
2021/08/17 10:58:39;;;;;;;10.08;3.95;;;;;;;28.60;57.54;100669.28;1731513;81;21091;-66
2021/08/17 11:01:06;;;;;;;6.10;3.40;;;;;;;28.58;55.60;100675.50;1731774;81;20970;-65
2021/08/17 11:03:50;;;;;;;7.83;3.45;;;;;;;28.62;55.55;100680.66;1709796;81;20972;-64
2021/08/17 11:06:41;;;;;;;4.62;3.33;;;;;;;28.67;53.70;100679.64;1728541;81;21544;-64
2021/08/17 11:09:30;;;;;;;8.28;3.37;;;;;;;28.73;52.78;100673.41;1728294;81;21486;-66
2021/08/17 11:12:04;;;;;;;6.60;3.15;;;;;;;28.74;54.13;100669.62;1721529;81;21123;-64
2021/08/17 11:14:34;;;;;;;8.55;2.83;;;;;;;28.67;52.91;100664.47;1727194;81;21068;-65
2021/08/17 11:17:17;;;;;;;6.45;3.22;;;;;;;28.62;53.29;100664.98;1703665;83;21032;-66
2021/08/17 11:19:48;;;;;;;12.13;3.40;;;;;;;28.63;52.80;100661.70;1706085;82;21084;-64
2021/08/17 11:22:20;;;;;;;6.33;3.47;;;;;;;28.60;52.56;100656.88;1713967;82;21552;-66
2021/08/17 11:24:51;;;;;;;8.25;3.10;;;;;;;28.53;51.50;100657.24;1713293;83;21967;-66
2021/08/17 11:27:31;;;;;;;8.70;3.42;;;;;;;28.46;51.37;100652.09;1709355;82;21096;-65
2021/08/17 11:30:08;;;;;;;5.58;3.05;;;;;;;28.44;53.96;100648.66;1709232;82;21123;-65
2021/08/17 11:32:44;;;;;;;8.40;3.22;;;;;;;28.42;53.06;100653.48;1697745;82;21035;-65
2021/08/17 11:35:20;;;;;;;4.78;3.45;;;;;;;28.45;54.60;100653.13;1706214;81;21054;-65
2021/08/17 11:37:50;;;;;;;6.92;3.77;;;;;;;28.45;56.02;100647.62;1690638;83;21181;-66
2021/08/17 11:40:22;;;;;;;7.00;3.83;;;;;;;28.41;53.36;100641.58;1713839;82;21101;-65
2021/08/17 11:42:51;;;;;;;4.90;3.42;;;;;;;28.35;53.62;100647.80;1708621;82;21696;-65